メインページ
METAR-TAF:

METAR-TAF

空港 :

プレジデント・ジュセリノ・クビシェッキ国際空港

ブラジリア, ブラジリア連邦直轄区, ブラジル

緯度: 15-52S, 経度: 047-56W, 海抜: 1061m

現時点の気象観測

当レポートは50分前の11:00(UTC)に作成
無風
気温 15°C
湿度 82%
気圧 1022 hPa
視程10km以上
1,500メートル以下は雲なし、積乱雲なし

METAR: SBBR 221100Z 00000KT CAVOK 15/12 Q1022

時間: 08:50 (11:50 UTC)

予報

当レポートは3時間50分前の08:00(UTC)に作成
予報は22日の 12時(UTC)から 23日の 12時(UTC)まで有効
東/北東の風 5kt
視程10km以上
1,500メートル以下は雲なし、積乱雲なし
22日の 18時(UTC)から 22日の 20時(UTC)まで徐々に
の風 5kt
視程: 7000m
高度3000ftの雲は散在している
23日の 00時(UTC)から 23日の 02時(UTC)まで徐々に
南/南西の風 5kt
視程10km以上
1,500メートル以下は雲なし、積乱雲なし
23日の 06時(UTC)から 23日の 08時(UTC)まで徐々に
の風 5kt

TAF: SBBR 220800Z 2212/2312 06005KT CAVOK TX26/2218Z TN10/2309Z BECMG 2218/2220 18005KT 7000 SCT030 BECMG 2300/2302 20005KT CAVOK BECMG 2306/2308 19005KT RMK PDE

4,000以上の空港の気象観測と天気予報(METAR報とTAF報)

利用可能な観測所は地図上に黄色い丸と赤い丸で示す。

丸の上にカーソルを重ねると観測所名を参照できる。

次にクリックすると気象観測と天気予報を参照できる。

マップの切り替え:黒色「×」印の緑ボタンをクリックして拡大、「-」印の緑ボタンをクリックして縮小、緑色の三角印をクリックして隣りの地図に切り替え


METAR-TAF: